Time;durP1;ratioP1;P1;durP2;ratioP2;P2;SDS_P1;SDS_P2;PMS_P1;PMS_P2;Temp;Humidity;BMP_temperature;BMP_pressure;BME280_temperature;BME280_humidity;BME280_pressure;Samples;Min_cycle;Max_cycle;Signal;HPM_P1;HPM_P2
2024/03/01 00:01:46;;;;;;;;;;;17.80;61.90;;;;;;5039679;28;1308;-71
2024/03/01 00:04:11;;;;;;;;;;;17.80;62.00;;;;;;5038947;28;1391;-72
2024/03/01 00:06:36;;;;;;;;;;;17.80;62.00;;;;;;5040923;28;1824;-71
2024/03/01 00:09:02;;;;;;;;;;;17.80;62.00;;;;;;5039848;28;1342;-72
2024/03/01 00:11:28;;;;;;;;;;;17.80;62.10;;;;;;5038939;28;1977;-72
2024/03/01 00:13:54;;;;;;;;;;;17.80;62.10;;;;;;5039865;28;1142;-72
2024/03/01 00:16:19;;;;;;;;;;;17.80;62.10;;;;;;5043989;28;1478;-71
2024/03/01 00:18:45;;;;;;;;;;;17.80;62.20;;;;;;5070328;28;1596;-72
2024/03/01 00:21:16;;;;;;;;;;;17.80;62.20;;;;;;5037019;28;1276;-72
2024/03/01 00:23:44;;;;;;;;;;;17.80;62.20;;;;;;5038981;28;1477;-72
2024/03/01 00:26:10;;;;;;;;;;;17.80;62.20;;;;;;5039435;28;1599;-72
2024/03/01 00:28:35;;;;;;;;;;;17.80;62.20;;;;;;5040433;28;1584;-72
2024/03/01 00:31:01;;;;;;;;;;;17.80;62.20;;;;;;5038267;28;1961;-72
2024/03/01 00:33:26;;;;;;;;;;;17.80;62.30;;;;;;5037767;28;1138;-72
2024/03/01 00:35:52;;;;;;;;;;;17.80;62.30;;;;;;5037695;28;1455;-71
2024/03/01 00:38:17;;;;;;;;;;;17.80;62.30;;;;;;5054778;28;1471;-72
2024/03/01 00:40:43;;;;;;;;;;;17.80;62.30;;;;;;5037145;28;1378;-71
2024/03/01 00:43:09;;;;;;;;;;;17.80;62.30;;;;;;5039996;28;1196;-72
2024/03/01 00:45:35;;;;;;;;;;;17.70;62.30;;;;;;5037634;28;1369;-72
2024/03/01 00:48:06;;;;;;;;;;;17.70;62.30;;;;;;5036965;28;1212;-72
2024/03/01 00:50:31;;;;;;;;;;;17.70;62.30;;;;;;5039595;28;1902;-73
2024/03/01 00:52:57;;;;;;;;;;;17.70;62.40;;;;;;5038912;28;1347;-72
2024/03/01 00:55:23;;;;;;;;;;;17.70;62.40;;;;;;5040934;28;1135;-72
2024/03/01 00:57:48;;;;;;;;;;;17.70;62.40;;;;;;5042101;28;1317;-72
2024/03/01 01:00:14;;;;;;;;;;;17.70;62.40;;;;;;5042238;28;1253;-72
2024/03/01 01:02:40;;;;;;;;;;;17.70;62.40;;;;;;5054749;28;1264;-72
2024/03/01 01:05:05;;;;;;;;;;;17.70;62.50;;;;;;5038117;28;1493;-72
2024/03/01 01:07:31;;;;;;;;;;;17.70;62.50;;;;;;5040280;28;1286;-71
2024/03/01 01:09:56;;;;;;;;;;;17.70;62.50;;;;;;5040422;28;1310;-70
2024/03/01 01:12:22;;;;;;;;;;;17.70;62.50;;;;;;5021123;28;1974;-71
2024/03/01 01:14:47;;;;;;;;;;;17.70;62.60;;;;;;5038898;28;1380;-71
2024/03/01 01:17:12;;;;;;;;;;;17.70;62.60;;;;;;5039673;28;1435;-71
2024/03/01 01:19:38;;;;;;;;;;;17.70;62.60;;;;;;5040964;28;1764;-71
2024/03/01 01:22:04;;;;;;;;;;;17.70;62.60;;;;;;5042574;28;1535;-71
2024/03/01 01:24:29;;;;;;;;;;;17.70;62.60;;;;;;5038467;28;1411;-71
2024/03/01 01:26:55;;;;;;;;;;;17.70;62.60;;;;;;5042892;28;893;-73
2024/03/01 01:29:21;;;;;;;;;;;17.70;62.60;;;;;;5045536;28;1117;-72
2024/03/01 01:31:47;;;;;;;;;;;17.70;62.60;;;;;;5038219;28;1906;-73
2024/03/01 01:34:12;;;;;;;;;;;17.70;62.70;;;;;;5039990;28;1261;-72
2024/03/01 01:36:38;;;;;;;;;;;17.60;62.70;;;;;;5039619;28;1403;-72
2024/03/01 01:39:07;;;;;;;;;;;17.70;62.70;;;;;;5040854;28;1449;-71
2024/03/01 01:41:32;;;;;;;;;;;17.60;62.70;;;;;;5041687;28;1435;-71
2024/03/01 01:43:58;;;;;;;;;;;17.60;62.70;;;;;;5042866;28;1325;-72
2024/03/01 01:46:23;;;;;;;;;;;17.60;62.70;;;;;;5039255;28;1270;-74
2024/03/01 01:48:49;;;;;;;;;;;17.60;62.70;;;;;;5041496;28;1391;-69
2024/03/01 01:51:15;;;;;;;;;;;17.60;62.80;;;;;;5045431;28;1965;-73
2024/03/01 01:53:40;;;;;;;;;;;17.60;62.80;;;;;;5043514;28;1455;-71
2024/03/01 01:56:06;;;;;;;;;;;17.60;62.80;;;;;;5042150;28;1285;-71
2024/03/01 01:58:32;;;;;;;;;;;17.60;62.80;;;;;;5042849;28;1239;-71
2024/03/01 02:00:58;;;;;;;;;;;17.60;62.90;;;;;;5073598;28;1541;-71
2024/03/01 02:03:23;;;;;;;;;;;17.60;62.90;;;;;;5043093;28;1411;-71
2024/03/01 02:05:48;;;;;;;;;;;17.60;62.90;;;;;;5042995;28;1457;-73
2024/03/01 02:08:14;;;;;;;;;;;17.60;62.90;;;;;;5040603;28;1589;-72
2024/03/01 02:10:40;;;;;;;;;;;17.60;62.90;;;;;;5075664;28;1909;-73
2024/03/01 02:13:05;;;;;;;;;;;17.60;62.90;;;;;;5042408;28;1629;-72
2024/03/01 02:15:31;;;;;;;;;;;17.60;63.00;;;;;;5038601;28;1105;-72
2024/03/01 02:17:56;;;;;;;;;;;17.60;63.70;;;;;;5043220;28;1514;-72
2024/03/01 02:20:22;;;;;;;;;;;17.60;63.00;;;;;;5041806;28;1149;-72
2024/03/01 02:22:49;;;;;;;;;;;17.60;63.00;;;;;;5048826;28;1288;-72
2024/03/01 02:25:15;;;;;;;;;;;17.60;63.00;;;;;;5040946;28;811;-72
2024/03/01 02:27:40;;;;;;;;;;;17.60;63.10;;;;;;5040502;28;1143;-73
2024/03/01 02:30:09;;;;;;;;;;;17.60;63.10;;;;;;5043108;28;1906;-73
2024/03/01 02:32:35;;;;;;;;;;;17.60;63.00;;;;;;5042270;28;1361;-73
2024/03/01 02:35:00;;;;;;;;;;;17.60;63.10;;;;;;5042940;28;870;-73
2024/03/01 02:37:26;;;;;;;;;;;17.60;63.10;;;;;;5041628;28;1645;-72
2024/03/01 02:39:51;;;;;;;;;;;17.60;63.10;;;;;;5043789;28;1521;-71
2024/03/01 02:42:17;;;;;;;;;;;17.60;63.10;;;;;;5042143;28;1506;-73
2024/03/01 02:44:42;;;;;;;;;;;17.60;63.10;;;;;;5042532;28;1567;-73
2024/03/01 02:47:07;;;;;;;;;;;17.50;63.10;;;;;;5039646;28;1232;-73
2024/03/01 02:49:33;;;;;;;;;;;17.50;63.10;;;;;;5044490;28;1387;-73
2024/03/01 02:51:59;;;;;;;;;;;17.50;63.10;;;;;;5043543;28;1902;-73
2024/03/01 02:54:24;;;;;;;;;;;17.50;63.10;;;;;;5042362;28;1575;-73
2024/03/01 02:56:50;;;;;;;;;;;17.50;63.10;;;;;;5041202;28;1538;-73
2024/03/01 02:59:16;;;;;;;;;;;17.50;63.10;;;;;;5040093;28;1453;-72
2024/03/01 03:01:41;;;;;;;;;;;17.50;63.20;;;;;;5040380;28;1386;-72
2024/03/01 03:04:07;;;;;;;;;;;17.50;63.20;;;;;;5049686;28;1233;-72
2024/03/01 03:06:32;;;;;;;;;;;17.50;63.20;;;;;;5041649;28;1325;-71
2024/03/01 03:08:58;;;;;;;;;;;17.50;63.90;;;;;;5042970;28;1093;-72
2024/03/01 03:11:25;;;;;;;;;;;17.50;63.20;;;;;;5040331;28;1961;-73
2024/03/01 03:13:50;;;;;;;;;;;17.50;63.20;;;;;;5042342;28;1594;-72
2024/03/01 03:16:16;;;;;;;;;;;17.50;63.20;;;;;;5041855;28;1345;-71
2024/03/01 03:18:41;;;;;;;;;;;17.50;63.30;;;;;;5040119;28;1118;-72
2024/03/01 03:21:07;;;;;;;;;;;17.50;63.30;;;;;;5040176;28;1409;-71
2024/03/01 03:23:32;;;;;;;;;;;17.50;63.30;;;;;;5040869;28;1415;-71
2024/03/01 03:25:58;;;;;;;;;;;17.50;63.30;;;;;;5041856;28;1459;-70
2024/03/01 03:28:24;;;;;;;;;;;17.50;63.30;;;;;;5044190;28;1470;-70
2024/03/01 03:30:49;;;;;;;;;;;17.50;63.30;;;;;;5038476;28;1961;-71
2024/03/01 03:33:15;;;;;;;;;;;17.50;63.30;;;;;;5024533;28;1524;-70
2024/03/01 03:35:40;;;;;;;;;;;17.50;63.30;;;;;;5042283;28;1777;-70
2024/03/01 03:38:06;;;;;;;;;;;17.50;63.30;;;;;;5038553;28;1464;-70
2024/03/01 03:40:31;;;;;;;;;;;17.50;63.30;;;;;;5040049;28;1391;-70
2024/03/01 03:42:57;;;;;;;;;;;17.50;63.40;;;;;;5040250;28;1490;-70
2024/03/01 03:45:22;;;;;;;;;;;17.50;63.40;;;;;;5042681;28;1425;-70
2024/03/01 03:47:47;;;;;;;;;;;17.50;64.20;;;;;;5041635;28;1315;-70
2024/03/01 03:50:13;;;;;;;;;;;17.50;63.40;;;;;;5039650;28;1955;-70
2024/03/01 03:52:38;;;;;;;;;;;17.50;63.40;;;;;;5041065;28;1343;-70
2024/03/01 03:55:04;;;;;;;;;;;17.50;63.40;;;;;;5038447;28;1174;-70
2024/03/01 03:57:31;;;;;;;;;;;17.50;63.40;;;;;;5041964;28;1466;-70
2024/03/01 03:59:57;;;;;;;;;;;17.50;63.50;;;;;;5039939;28;1614;-71
2024/03/01 04:02:22;;;;;;;;;;;17.50;63.50;;;;;;5042640;28;1351;-70
2024/03/01 04:04:50;;;;;;;;;;;17.50;63.50;;;;;;5040126;28;1412;-70
2024/03/01 04:07:16;;;;;;;;;;;17.50;63.50;;;;;;5038635;28;1010;-70
2024/03/01 04:09:42;;;;;;;;;;;17.50;63.50;;;;;;5053613;28;1520;-71
2024/03/01 04:12:07;;;;;;;;;;;17.50;63.50;;;;;;5036397;28;1911;-70
2024/03/01 04:14:33;;;;;;;;;;;17.50;63.60;;;;;;5038924;28;1656;-70
2024/03/01 04:16:59;;;;;;;;;;;17.50;63.60;;;;;;5039446;28;1592;-72
2024/03/01 04:19:25;;;;;;;;;;;17.50;63.50;;;;;;5071571;28;1435;-73
2024/03/01 04:21:52;;;;;;;;;;;17.50;63.60;;;;;;5037855;28;1370;-73
2024/03/01 04:24:18;;;;;;;;;;;17.40;63.50;;;;;;5038096;28;1266;-73
2024/03/01 04:26:43;;;;;;;;;;;17.40;63.50;;;;;;5035057;28;1304;-72
2024/03/01 04:29:09;;;;;;;;;;;17.40;63.60;;;;;;5038465;28;1313;-72
2024/03/01 04:31:35;;;;;;;;;;;17.40;63.50;;;;;;5039294;28;1906;-72
2024/03/01 04:34:04;;;;;;;;;;;17.40;63.60;;;;;;5040032;28;1304;-72
2024/03/01 04:36:29;;;;;;;;;;;17.40;63.60;;;;;;5039627;28;978;-73
2024/03/01 04:38:55;;;;;;;;;;;17.40;63.60;;;;;;5047448;28;1267;-73
2024/03/01 04:41:20;;;;;;;;;;;17.40;63.60;;;;;;5038935;28;1410;-73
2024/03/01 04:43:46;;;;;;;;;;;17.50;63.70;;;;;;5041059;28;1282;-73
2024/03/01 04:46:12;;;;;;;;;;;17.40;63.60;;;;;;5038694;28;896;-73
2024/03/01 04:48:37;;;;;;;;;;;17.40;63.60;;;;;;5041333;28;1307;-73
2024/03/01 04:51:15;;;;;;;;;;;17.40;63.60;;;;;;5036217;28;1894;-73
2024/03/01 04:53:41;;;;;;;;;;;17.40;63.60;;;;;;5040954;28;1743;-73
2024/03/01 04:56:07;;;;;;;;;;;17.40;63.70;;;;;;5041769;28;1088;-73
2024/03/01 04:58:32;;;;;;;;;;;17.40;63.70;;;;;;5039775;28;942;-72
2024/03/01 05:01:00;;;;;;;;;;;17.40;63.70;;;;;;5039600;28;1296;-72
2024/03/01 05:03:28;;;;;;;;;;;17.40;63.70;;;;;;5038616;28;1470;-72
2024/03/01 05:05:54;;;;;;;;;;;17.40;63.70;;;;;;5038686;28;1471;-72
2024/03/01 05:08:20;;;;;;;;;;;17.40;63.70;;;;;;5040479;28;1355;-72
2024/03/01 05:10:49;;;;;;;;;;;17.40;63.70;;;;;;5038806;28;1910;-72
2024/03/01 05:13:15;;;;;;;;;;;17.40;63.60;;;;;;5038169;28;1313;-72
2024/03/01 05:15:41;;;;;;;;;;;17.50;63.60;;;;;;5037841;28;1122;-72
2024/03/01 05:18:06;;;;;;;;;;;17.40;63.50;;;;;;5036986;28;1492;-72
2024/03/01 05:20:32;;;;;;;;;;;17.50;63.40;;;;;;5038081;28;1365;-73
2024/03/01 05:22:57;;;;;;;;;;;17.60;63.40;;;;;;5039691;28;1291;-73
2024/03/01 05:25:23;;;;;;;;;;;17.60;63.30;;;;;;5037777;28;1550;-73
2024/03/01 05:27:48;;;;;;;;;;;17.60;63.10;;;;;;5041718;28;1206;-73
2024/03/01 05:30:17;;;;;;;;;;;17.60;63.00;;;;;;5070317;28;1955;-73
2024/03/01 05:32:43;;;;;;;;;;;17.70;62.90;;;;;;5036685;28;1557;-73
2024/03/01 05:35:09;;;;;;;;;;;17.70;62.80;;;;;;5036321;28;1268;-73
2024/03/01 05:37:34;;;;;;;;;;;17.70;62.60;;;;;;5043494;28;1435;-73
2024/03/01 05:40:03;;;;;;;;;;;17.80;62.60;;;;;;5040273;28;1261;-73
2024/03/01 05:42:29;;;;;;;;;;;17.80;62.50;;;;;;5040522;28;1443;-73
2024/03/01 05:44:54;;;;;;;;;;;17.80;62.40;;;;;;5025489;28;1387;-73
2024/03/01 05:47:20;;;;;;;;;;;17.80;62.30;;;;;;5043517;28;1480;-73
2024/03/01 05:49:46;;;;;;;;;;;17.90;62.30;;;;;;5038060;28;1562;-73
2024/03/01 05:52:11;;;;;;;;;;;17.90;62.20;;;;;;5040741;28;1890;-72
2024/03/01 05:54:37;;;;;;;;;;;17.90;62.10;;;;;;5040293;28;1418;-72
2024/03/01 05:57:02;;;;;;;;;;;17.90;62.00;;;;;;5039448;28;1252;-73
2024/03/01 05:59:28;;;;;;;;;;;18.00;62.00;;;;;;5036335;28;1344;-72
2024/03/01 06:01:54;;;;;;;;;;;17.90;62.00;;;;;;5025973;28;1502;-72
2024/03/01 06:04:20;;;;;;;;;;;17.90;61.90;;;;;;5035897;28;1377;-74
2024/03/01 06:06:45;;;;;;;;;;;17.90;61.80;;;;;;5042675;28;1371;-74
2024/03/01 06:09:11;;;;;;;;;;;18.00;61.90;;;;;;5037337;28;2005;-74
2024/03/01 06:11:36;;;;;;;;;;;18.00;61.80;;;;;;5040055;28;1906;-71
2024/03/01 06:14:02;;;;;;;;;;;18.00;61.80;;;;;;5038705;28;1302;-71
2024/03/01 06:16:28;;;;;;;;;;;18.00;61.80;;;;;;5037098;28;1465;-74
2024/03/01 06:18:54;;;;;;;;;;;18.00;61.70;;;;;;5037720;28;1251;-70
2024/03/01 06:21:22;;;;;;;;;;;18.00;61.70;;;;;;5040576;28;1390;-70
2024/03/01 06:23:48;;;;;;;;;;;18.00;61.70;;;;;;5040024;28;1464;-71
2024/03/01 06:26:14;;;;;;;;;;;18.00;61.70;;;;;;5036404;28;1152;-71
2024/03/01 06:28:41;;;;;;;;;;;18.00;61.60;;;;;;5040354;28;1748;-71
2024/03/01 06:31:07;;;;;;;;;;;18.00;61.70;;;;;;5037260;28;1969;-73
2024/03/01 06:33:33;;;;;;;;;;;18.00;61.60;;;;;;5047130;28;1192;-69
2024/03/01 06:35:58;;;;;;;;;;;18.00;61.60;;;;;;5039630;28;1011;-69
2024/03/01 06:38:24;;;;;;;;;;;18.10;61.60;;;;;;5040219;28;1374;-69
2024/03/01 06:40:49;;;;;;;;;;;18.10;61.60;;;;;;5048335;28;1316;-70
2024/03/01 06:43:15;;;;;;;;;;;18.00;61.60;;;;;;5047419;28;1033;-70
2024/03/01 06:45:40;;;;;;;;;;;18.00;61.60;;;;;;5049725;28;2003;-70
2024/03/01 06:48:08;;;;;;;;;;;18.10;61.70;;;;;;5042890;28;1449;-68
2024/03/01 06:50:35;;;;;;;;;;;18.00;61.60;;;;;;5043169;28;1973;-70
2024/03/01 06:53:00;;;;;;;;;;;18.00;61.60;;;;;;5040955;28;1352;-70
2024/03/01 06:55:26;;;;;;;;;;;18.00;61.60;;;;;;5040811;28;1481;-70
2024/03/01 06:57:51;;;;;;;;;;;18.00;61.70;;;;;;5045427;28;1372;-70
2024/03/01 07:00:17;;;;;;;;;;;18.00;61.60;;;;;;5043225;28;1461;-71
2024/03/01 07:02:42;;;;;;;;;;;18.00;61.70;;;;;;5038735;28;1866;-71
2024/03/01 07:05:08;;;;;;;;;;;18.00;61.70;;;;;;5040478;28;1404;-71
2024/03/01 07:07:37;;;;;;;;;;;18.00;61.70;;;;;;5026621;28;1275;-72
2024/03/01 07:10:03;;;;;;;;;;;18.00;61.70;;;;;;5040890;28;1396;-72
2024/03/01 07:12:28;;;;;;;;;;;18.00;61.70;;;;;;5037221;28;2007;-71
2024/03/01 07:14:54;;;;;;;;;;;18.00;61.80;;;;;;5040403;28;1381;-68
2024/03/01 07:17:22;;;;;;;;;;;18.00;61.80;;;;;;5041914;28;1749;-68
2024/03/01 07:19:47;;;;;;;;;;;18.00;61.90;;;;;;5038840;28;1121;-69
2024/03/01 07:22:13;;;;;;;;;;;18.00;61.80;;;;;;5042887;28;1268;-68
2024/03/01 07:24:38;;;;;;;;;;;18.00;61.90;;;;;;5056430;28;1614;-68
2024/03/01 07:27:03;;;;;;;;;;;18.00;61.90;;;;;;5042757;28;1276;-70
2024/03/01 07:29:29;;;;;;;;;;;18.00;61.90;;;;;;5038577;28;1393;-70
2024/03/01 07:31:54;;;;;;;;;;;18.00;61.90;;;;;;5039740;28;1910;-69
2024/03/01 07:34:20;;;;;;;;;;;18.00;62.00;;;;;;5039577;28;1358;-69
2024/03/01 07:36:45;;;;;;;;;;;17.90;61.90;;;;;;5041669;28;1301;-68
2024/03/01 07:39:11;;;;;;;;;;;18.00;62.00;;;;;;5042109;28;1479;-68
2024/03/01 07:41:37;;;;;;;;;;;18.00;62.00;;;;;;5040599;28;1276;-68
2024/03/01 07:44:02;;;;;;;;;;;17.90;62.00;;;;;;5041531;28;1311;-68
2024/03/01 07:46:28;;;;;;;;;;;17.90;62.00;;;;;;5040855;28;1559;-69
2024/03/01 07:48:53;;;;;;;;;;;17.90;62.80;;;;;;5036698;28;1246;-68
2024/03/01 07:51:19;;;;;;;;;;;17.90;62.00;;;;;;5038156;28;1969;-69
2024/03/01 07:53:46;;;;;;;;;;;17.90;62.00;;;;;;5040283;28;1807;-70
2024/03/01 07:56:11;;;;;;;;;;;17.90;62.10;;;;;;5043092;28;1229;-71
2024/03/01 07:58:36;;;;;;;;;;;17.90;62.10;;;;;;5039992;28;1686;-71
2024/03/01 08:01:02;;;;;;;;;;;18.00;62.10;;;;;;5048457;28;1296;-70
2024/03/01 08:03:27;;;;;;;;;;;17.90;62.10;;;;;;5038282;28;1512;-70
2024/03/01 08:05:53;;;;;;;;;;;17.90;62.10;;;;;;5038760;28;1144;-70
2024/03/01 08:08:24;;;;;;;;;;;17.90;62.10;;;;;;5037482;28;1171;-70
2024/03/01 08:10:50;;;;;;;;;;;17.90;62.20;;;;;;5036861;28;1910;-70
2024/03/01 08:13:15;;;;;;;;;;;17.90;62.20;;;;;;5036650;28;1062;-69
2024/03/01 08:15:41;;;;;;;;;;;17.90;62.20;;;;;;5046944;28;1100;-70
2024/03/01 08:18:16;;;;;;;;;;;17.90;62.20;;;;;;5040121;28;1436;-70
2024/03/01 08:20:50;;;;;;;;;;;17.90;62.20;;;;;;5039737;28;919;-70
2024/03/01 08:23:15;;;;;;;;;;;17.90;62.30;;;;;;5039154;28;1065;-70
2024/03/01 08:25:40;;;;;;;;;;;17.90;62.30;;;;;;5028203;28;1551;-70
2024/03/01 08:28:06;;;;;;;;;;;17.90;62.30;;;;;;5039354;28;1242;-70
2024/03/01 08:30:38;;;;;;;;;;;17.90;62.40;;;;;;5046338;28;1906;-70
2024/03/01 08:33:03;;;;;;;;;;;17.90;62.40;;;;;;5040098;28;1316;-71
2024/03/01 08:35:29;;;;;;;;;;;17.90;62.40;;;;;;5039762;28;1450;-69
2024/03/01 08:37:55;;;;;;;;;;;17.90;62.40;;;;;;5038708;28;1983;-69
2024/03/01 08:40:23;;;;;;;;;;;17.90;62.40;;;;;;5045562;28;1457;-69
2024/03/01 08:42:49;;;;;;;;;;;17.90;62.40;;;;;;5036013;28;1483;-69
2024/03/01 08:45:26;;;;;;;;;;;17.90;62.40;;;;;;5037558;28;1528;-70
2024/03/01 08:47:54;;;;;;;;;;;17.90;62.40;;;;;;5040484;28;1354;-70
2024/03/01 08:50:26;;;;;;;;;;;17.90;62.40;;;;;;5037205;28;1992;-70
2024/03/01 08:52:52;;;;;;;;;;;17.90;62.40;;;;;;5040438;28;1347;-68
2024/03/01 08:55:20;;;;;;;;;;;17.90;62.30;;;;;;5039335;28;1526;-69
2024/03/01 08:57:46;;;;;;;;;;;17.90;62.30;;;;;;5039354;28;1568;-69
2024/03/01 09:00:27;;;;;;;;;;;17.90;62.20;;;;;;5038722;28;1565;-70
2024/03/01 09:02:53;;;;;;;;;;;17.90;62.20;;;;;;5041855;28;1458;-69
2024/03/01 09:05:18;;;;;;;;;;;17.90;62.20;;;;;;5037976;28;1609;-70
2024/03/01 09:07:44;;;;;;;;;;;18.00;62.20;;;;;;5039453;28;1658;-70
2024/03/01 09:10:16;;;;;;;;;;;17.90;62.10;;;;;;5047127;28;1477;-69
2024/03/01 09:12:41;;;;;;;;;;;18.00;62.10;;;;;;5055308;28;1922;-71
2024/03/01 09:15:07;;;;;;;;;;;18.00;62.10;;;;;;5045758;28;1577;-70
2024/03/01 09:17:32;;;;;;;;;;;18.00;62.00;;;;;;5038189;28;1557;-70
2024/03/01 09:20:00;;;;;;;;;;;18.00;62.00;;;;;;5038315;28;1625;-70
2024/03/01 09:22:26;;;;;;;;;;;18.00;62.00;;;;;;5035950;28;1588;-70
2024/03/01 09:24:51;;;;;;;;;;;18.00;62.00;;;;;;5036526;28;1505;-70
2024/03/01 09:27:32;;;;;;;;;;;18.00;62.00;;;;;;5039691;28;1335;-72
2024/03/01 09:29:58;;;;;;;;;;;18.00;61.90;;;;;;5040354;28;1298;-70
2024/03/01 09:32:24;;;;;;;;;;;18.00;61.90;;;;;;5037805;28;1963;-70
2024/03/01 09:34:49;;;;;;;;;;;18.00;61.90;;;;;;5040271;28;1326;-70
2024/03/01 09:37:16;;;;;;;;;;;18.00;61.90;;;;;;5039694;28;1518;-70
2024/03/01 09:39:41;;;;;;;;;;;18.00;61.90;;;;;;5037242;28;1423;-70
2024/03/01 09:42:14;;;;;;;;;;;18.00;61.90;;;;;;5039427;28;1292;-70
2024/03/01 09:44:43;;;;;;;;;;;18.10;62.00;;;;;;5045571;28;1792;-70
2024/03/01 09:47:27;;;;;;;;;;;18.00;61.80;;;;;;5052802;28;1585;-70
2024/03/01 09:50:01;;;;;;;;;;;18.00;61.80;;;;;;5036635;28;2077;-71
2024/03/01 09:52:35;;;;;;;;;;;18.00;61.80;;;;;;5038663;28;1972;-71
2024/03/01 09:55:04;;;;;;;;;;;18.00;61.80;;;;;;5044902;28;1235;-71
2024/03/01 09:57:34;;;;;;;;;;;18.10;61.90;;;;;;5037578;28;1474;-71
2024/03/01 10:00:00;;;;;;;;;;;18.10;61.90;;;;;;5035263;28;1462;-71
2024/03/01 10:02:29;;;;;;;;;;;18.10;61.90;;;;;;5034622;28;2233;-71
2024/03/01 10:04:59;;;;;;;;;;;18.10;61.90;;;;;;5037217;28;1263;-71
2024/03/01 10:07:33;;;;;;;;;;;18.10;61.80;;;;;;5040722;28;1558;-72
2024/03/01 10:09:58;;;;;;;;;;;18.10;61.80;;;;;;5042242;28;1142;-71
2024/03/01 10:12:30;;;;;;;;;;;18.10;61.80;;;;;;5050106;28;1975;-71
2024/03/01 10:14:58;;;;;;;;;;;18.10;61.80;;;;;;5044068;28;1233;-71
2024/03/01 10:17:23;;;;;;;;;;;18.10;61.80;;;;;;5041521;28;1549;-70
2024/03/01 10:20:01;;;;;;;;;;;18.10;61.80;;;;;;5044803;28;1304;-71
2024/03/01 10:22:26;;;;;;;;;;;18.10;61.80;;;;;;5028058;28;4150;-71
2024/03/01 10:25:11;;;;;;;;;;;18.10;62.50;;;;;;5065290;28;4235;-70
2024/03/01 10:27:41;;;;;;;;;;;18.10;61.80;;;;;;5035740;28;4508;-70
2024/03/01 10:30:10;;;;;;;;;;;18.10;61.80;;;;;;5073277;28;1594;-73
2024/03/01 10:32:39;;;;;;;;;;;18.10;61.80;;;;;;5073988;28;1909;-73
2024/03/01 10:35:13;;;;;;;;;;;18.10;61.80;;;;;;5040875;28;1508;-73
2024/03/01 10:37:43;;;;;;;;;;;18.10;62.20;;;;;;5049742;28;1547;-70
2024/03/01 10:40:17;;;;;;;;;;;18.10;61.70;;;;;;5042097;28;1610;-72
2024/03/01 10:42:51;;;;;;;;;;;18.10;61.70;;;;;;5042022;28;1405;-72
2024/03/01 10:45:20;;;;;;;;;;;18.10;61.70;;;;;;5041226;28;1582;-72
2024/03/01 10:47:48;;;;;;;;;;;18.10;61.70;;;;;;5048964;28;1657;-72
2024/03/01 10:50:17;;;;;;;;;;;18.10;61.70;;;;;;5045043;28;1359;-71
2024/03/01 10:53:02;;;;;;;;;;;18.10;61.80;;;;;;5040198;28;1971;-70
2024/03/01 10:55:31;;;;;;;;;;;18.10;61.80;;;;;;5040165;28;1611;-71
2024/03/01 10:58:09;;;;;;;;;;;18.10;61.80;;;;;;5038537;28;1581;-71
2024/03/01 11:00:35;;;;;;;;;;;18.10;61.80;;;;;;5041109;28;1249;-71
2024/03/01 11:03:07;;;;;;;;;;;18.10;61.80;;;;;;5039413;28;1319;-72
2024/03/01 11:05:36;;;;;;;;;;;18.10;61.80;;;;;;5041330;28;1144;-71
2024/03/01 11:08:07;;;;;;;;;;;18.10;61.80;;;;;;5039433;28;1426;-72
2024/03/01 11:10:53;;;;;;;;;;;18.10;61.90;;;;;;5049258;28;1981;-71
2024/03/01 11:13:19;;;;;;;;;;;18.10;61.90;;;;;;5053700;28;1211;-71
2024/03/01 11:15:46;;;;;;;;;;;18.00;61.90;;;;;;5040390;28;1845;-71
2024/03/01 11:18:13;;;;;;;;;;;18.00;61.90;;;;;;5041530;28;1136;-71
2024/03/01 11:20:38;;;;;;;;;;;18.00;61.90;;;;;;5041234;28;1112;-71
2024/03/01 11:23:04;;;;;;;;;;;18.10;62.00;;;;;;5040802;28;1224;-70
2024/03/01 11:25:34;;;;;;;;;;;18.00;62.00;;;;;;5041853;28;1493;-70
2024/03/01 11:28:01;;;;;;;;;;;18.00;62.00;;;;;;5041977;28;1557;-71
2024/03/01 11:30:30;;;;;;;;;;;18.00;62.00;;;;;;5041793;28;1961;-71
2024/03/01 11:33:01;;;;;;;;;;;18.00;62.00;;;;;;5039420;28;1492;-71
2024/03/01 11:35:37;;;;;;;;;;;18.00;62.10;;;;;;5037943;28;1451;-70
2024/03/01 11:38:21;;;;;;;;;;;18.00;62.20;;;;;;5040485;28;1412;-71
2024/03/01 11:40:49;;;;;;;;;;;17.90;62.20;;;;;;5041057;28;1372;-72
2024/03/01 11:43:34;;;;;;;;;;;17.90;62.20;;;;;;5040303;28;1222;-71
2024/03/01 11:45:59;;;;;;;;;;;18.00;62.30;;;;;;5038390;28;1870;-73
2024/03/01 11:48:37;;;;;;;;;;;17.90;62.30;;;;;;5041516;28;1150;-73
2024/03/01 11:51:02;;;;;;;;;;;17.90;62.30;;;;;;5036993;28;1898;-72
2024/03/01 11:53:39;;;;;;;;;;;17.90;63.10;;;;;;5047956;28;1573;-72
2024/03/01 11:56:11;;;;;;;;;;;17.90;62.40;;;;;;5041288;28;1102;-72
2024/03/01 11:58:37;;;;;;;;;;;17.90;62.50;;;;;;5039822;28;1210;-71
2024/03/01 12:01:21;;;;;;;;;;;17.90;62.50;;;;;;5037000;28;1299;-72
2024/03/01 12:03:52;;;;;;;;;;;17.90;62.60;;;;;;5039356;28;1396;-72
2024/03/01 12:06:17;;;;;;;;;;;17.90;62.50;;;;;;5055585;28;1631;-71
2024/03/01 12:08:43;;;;;;;;;;;17.90;62.60;;;;;;5040117;28;1410;-72
2024/03/01 12:11:18;;;;;;;;;;;17.90;62.60;;;;;;5037934;28;1972;-70
2024/03/01 12:14:03;;;;;;;;;;;17.80;62.60;;;;;;5041443;28;1550;-71
2024/03/01 12:16:41;;;;;;;;;;;17.90;62.70;;;;;;5041285;28;1561;-70
2024/03/01 12:19:09;;;;;;;;;;;17.80;62.60;;;;;;5040464;28;1369;-71
2024/03/01 12:21:51;;;;;;;;;;;17.90;62.70;;;;;;5036984;28;1610;-71
2024/03/01 12:24:16;;;;;;;;;;;17.80;62.60;;;;;;5039930;28;1665;-70
2024/03/01 12:27:08;;;;;;;;;;;17.80;62.60;;;;;;5039179;28;1711;-71
2024/03/01 12:29:43;;;;;;;;;;;17.90;62.70;;;;;;5039540;28;1515;-71
2024/03/01 12:32:12;;;;;;;;;;;17.80;62.60;;;;;;5039530;28;1957;-70
2024/03/01 12:34:52;;;;;;;;;;;17.90;62.60;;;;;;5039784;28;1222;-70
2024/03/01 12:37:36;;;;;;;;;;;17.90;62.60;;;;;;5040219;28;1385;-70
2024/03/01 12:40:16;;;;;;;;;;;17.90;62.60;;;;;;5035658;28;1470;-70
2024/03/01 12:42:50;;;;;;;;;;;17.90;62.50;;;;;;5037655;28;1303;-70
2024/03/01 12:45:18;;;;;;;;;;;17.90;62.50;;;;;;5039770;28;1494;-71
2024/03/01 12:47:44;;;;;;;;;;;17.90;62.50;;;;;;5037353;28;2311;-70
2024/03/01 12:50:15;;;;;;;;;;;17.90;62.40;;;;;;5036358;28;1528;-71
2024/03/01 12:52:46;;;;;;;;;;;17.90;62.40;;;;;;5046139;28;1894;-72
2024/03/01 12:55:14;;;;;;;;;;;17.90;62.40;;;;;;5046571;28;1572;-72
2024/03/01 12:57:45;;;;;;;;;;;17.90;62.30;;;;;;5040117;28;1580;-72
2024/03/01 13:00:15;;;;;;;;;;;17.90;62.30;;;;;;5047533;28;1461;-71
2024/03/01 13:02:46;;;;;;;;;;;17.90;62.30;;;;;;5030112;28;1397;-72
2024/03/01 13:05:36;;;;;;;;;;;18.00;62.30;;;;;;5036836;28;1244;-71
2024/03/01 13:08:02;;;;;;;;;;;18.00;63.00;;;;;;5069374;28;1338;-71
2024/03/01 13:10:28;;;;;;;;;;;18.00;62.30;;;;;;5038180;28;1979;-71
2024/03/01 13:13:01;;;;;;;;;;;18.00;62.20;;;;;;5037831;28;1384;-71
2024/03/01 13:15:30;;;;;;;;;;;18.00;62.20;;;;;;5046288;28;1395;-71
2024/03/01 13:18:12;;;;;;;;;;;18.00;62.20;;;;;;5038590;28;1347;-71
2024/03/01 13:20:55;;;;;;;;;;;18.00;62.10;;;;;;5038897;28;1325;-71
2024/03/01 13:23:21;;;;;;;;;;;18.00;62.10;;;;;;5038709;28;1346;-71
2024/03/01 13:25:54;;;;;;;;;;;18.00;62.10;;;;;;5038810;28;1102;-71
2024/03/01 13:28:22;;;;;;;;;;;18.00;62.10;;;;;;5070399;28;1445;-71
2024/03/01 13:30:48;;;;;;;;;;;18.00;62.10;;;;;;5036858;28;1973;-70
2024/03/01 13:33:16;;;;;;;;;;;18.00;62.00;;;;;;5038018;28;1350;-70
2024/03/01 13:35:43;;;;;;;;;;;18.00;62.00;;;;;;5038657;28;1030;-69
2024/03/01 13:38:12;;;;;;;;;;;18.00;62.00;;;;;;5036927;28;2080;-71
2024/03/01 13:40:46;;;;;;;;;;;18.00;62.00;;;;;;5039679;28;1302;-69
2024/03/01 13:43:19;;;;;;;;;;;18.00;62.10;;;;;;5040826;28;1657;-69
2024/03/01 13:45:45;;;;;;;;;;;18.00;62.10;;;;;;5040836;28;1276;-71
2024/03/01 13:48:18;;;;;;;;;;;18.00;62.00;;;;;;5039334;28;1276;-70
2024/03/01 13:50:44;;;;;;;;;;;18.00;62.00;;;;;;5040929;28;1898;-69
2024/03/01 13:53:16;;;;;;;;;;;18.00;62.00;;;;;;5041441;28;1269;-70
2024/03/01 13:55:42;;;;;;;;;;;18.00;62.10;;;;;;5044524;28;1323;-69
2024/03/01 13:58:07;;;;;;;;;;;18.10;62.10;;;;;;5041340;28;1315;-72
2024/03/01 14:00:33;;;;;;;;;;;18.00;62.00;;;;;;5042784;28;1631;-70
2024/03/01 14:03:02;;;;;;;;;;;18.00;62.00;;;;;;5043054;28;1486;-69
2024/03/01 14:05:28;;;;;;;;;;;18.00;62.00;;;;;;5042146;28;1639;-70
2024/03/01 14:07:54;;;;;;;;;;;18.00;62.00;;;;;;5043159;28;1582;-69
2024/03/01 14:10:21;;;;;;;;;;;18.00;62.00;;;;;;5042498;28;1451;-69
2024/03/01 14:12:47;;;;;;;;;;;18.00;62.10;;;;;;5041873;28;1967;-70
2024/03/01 14:15:12;;;;;;;;;;;18.00;62.10;;;;;;5040134;28;1243;-69
2024/03/01 14:17:40;;;;;;;;;;;18.00;62.10;;;;;;5040522;28;897;-71
2024/03/01 14:20:12;;;;;;;;;;;18.00;62.10;;;;;;5040087;28;1381;-70
2024/03/01 14:22:38;;;;;;;;;;;18.00;62.10;;;;;;5041429;28;1358;-70
2024/03/01 14:25:05;;;;;;;;;;;18.00;62.20;;;;;;5042829;28;1260;-71
2024/03/01 14:27:31;;;;;;;;;;;18.00;62.10;;;;;;5040791;28;1521;-69
2024/03/01 14:29:56;;;;;;;;;;;18.00;62.20;;;;;;5038853;28;1537;-70
2024/03/01 14:32:22;;;;;;;;;;;18.00;62.20;;;;;;5040911;28;1907;-70
2024/03/01 14:34:47;;;;;;;;;;;18.00;62.20;;;;;;5049193;28;1333;-69